Time;durP1;ratioP1;P1;durP2;ratioP2;P2;SDS_P1;SDS_P2;PMS_P1;PMS_P2;Temp;Humidity;BMP_temperature;BMP_pressure;BME280_temperature;BME280_humidity;BME280_pressure;Samples;Min_cycle;Max_cycle;Signal;HPM_P1;HPM_P2
2022/10/29 00:00:20;;;;;;;66.30;18.23;;;;;;;11.15;100.00;99854.31;4993431;28;20050;-51
2022/10/29 00:03:25;;;;;;;78.38;19.00;;;;;;;11.13;100.00;99849.13;4994116;28;20552;-51
2022/10/29 00:06:11;;;;;;;68.22;18.70;;;;;;;11.10;100.00;99854.56;5001782;28;20057;-47
2022/10/29 00:08:55;;;;;;;85.95;18.75;;;;;;;11.09;100.00;99850.25;4992963;28;20073;-49
2022/10/29 00:11:40;;;;;;;33.03;16.88;;;;;;;11.11;100.00;99844.91;4997806;28;20405;-50
2022/10/29 00:14:24;;;;;;;33.78;15.98;;;;;;;11.18;100.00;99847.13;4980888;28;20046;-52
2022/10/29 00:17:09;;;;;;;39.22;17.45;;;;;;;11.17;100.00;99845.44;5001853;28;20108;-50
2022/10/29 00:19:53;;;;;;;42.38;16.15;;;;;;;11.25;100.00;99845.00;4981123;28;20070;-51
2022/10/29 00:22:38;;;;;;;28.10;15.15;;;;;;;11.11;100.00;99843.16;4996001;28;20084;-51
2022/10/29 00:25:22;;;;;;;29.88;15.63;;;;;;;11.14;100.00;99840.34;4978156;28;20513;-54
2022/10/29 00:28:07;;;;;;;28.38;15.30;;;;;;;11.13;100.00;99836.03;4994492;28;20050;-51
2022/10/29 00:30:52;;;;;;;28.15;15.23;;;;;;;11.10;100.00;99836.19;4997561;28;20141;-50
2022/10/29 00:33:36;;;;;;;28.70;14.20;;;;;;;11.11;100.00;99832.66;5005175;28;20038;-52
2022/10/29 00:36:26;;;;;;;27.05;15.85;;;;;;;11.16;100.00;99827.97;5000336;28;20046;-50
2022/10/29 00:39:15;;;;;;;28.55;14.13;;;;;;;11.14;100.00;99832.50;4995531;28;20041;-49
2022/10/29 00:42:00;;;;;;;26.60;14.23;;;;;;;11.10;100.00;99833.56;4984745;28;20104;-48
2022/10/29 00:44:45;;;;;;;23.50;12.00;;;;;;;11.15;100.00;99839.41;4993215;28;20194;-47
2022/10/29 00:47:35;;;;;;;24.33;12.73;;;;;;;11.17;100.00;99834.94;4998123;28;20845;-53
2022/10/29 00:50:23;;;;;;;27.73;12.48;;;;;;;11.18;100.00;99828.75;4993144;28;20129;-47
2022/10/29 00:53:07;;;;;;;21.38;11.80;;;;;;;11.19;100.00;99838.34;4989841;28;20072;-52
2022/10/29 00:55:52;;;;;;;25.25;13.40;;;;;;;11.28;100.00;99839.59;4995263;28;20042;-52
2022/10/29 00:58:37;;;;;;;25.17;13.95;;;;;;;11.20;100.00;99828.69;4993373;28;20049;-53
2022/10/29 01:01:22;;;;;;;25.20;13.82;;;;;;;11.19;100.00;99825.22;4981770;28;20092;-47
2022/10/29 01:04:06;;;;;;;24.40;13.70;;;;;;;11.17;100.00;99832.31;4999657;28;20037;-54
2022/10/29 01:06:51;;;;;;;27.25;14.30;;;;;;;11.17;100.00;99832.31;4998752;28;20041;-51
2022/10/29 01:09:37;;;;;;;27.40;13.98;;;;;;;11.21;100.00;99823.34;4993413;28;20092;-49
2022/10/29 01:12:49;;;;;;;26.65;14.30;;;;;;;11.26;100.00;99830.13;4997573;28;20455;-54
2022/10/29 01:15:53;;;;;;;24.77;12.85;;;;;;;11.26;100.00;99840.63;4985952;28;20412;-48
2022/10/29 01:19:04;;;;;;;25.48;13.90;;;;;;;11.18;100.00;99834.00;4978154;28;20926;-53
2022/10/29 01:22:04;;;;;;;28.07;13.83;;;;;;;11.15;100.00;99822.81;4991266;28;20042;-49
2022/10/29 01:25:00;;;;;;;29.77;14.55;;;;;;;11.16;100.00;99821.91;4998916;28;20590;-53
2022/10/29 01:27:54;;;;;;;25.30;13.68;;;;;;;11.13;100.00;99820.28;5000459;28;20117;-52
2022/10/29 01:30:57;;;;;;;25.63;13.55;;;;;;;11.23;100.00;99832.94;4999151;28;20056;-46
2022/10/29 01:33:51;;;;;;;25.63;13.98;;;;;;;11.14;100.00;99834.25;4994605;28;20836;-53
2022/10/29 01:36:57;;;;;;;25.15;13.68;;;;;;;11.19;100.00;99819.97;4993100;28;20054;-51
2022/10/29 01:39:59;;;;;;;24.65;12.80;;;;;;;11.20;100.00;99823.44;4993905;28;20058;-47
2022/10/29 01:43:10;;;;;;;24.27;13.20;;;;;;;11.19;100.00;99811.25;4996718;28;20048;-48
2022/10/29 01:46:13;;;;;;;25.35;12.95;;;;;;;11.16;100.00;99804.38;4991265;28;20117;-49
2022/10/29 01:49:03;;;;;;;32.35;13.80;;;;;;;11.19;100.00;99801.63;4993511;28;20057;-52
2022/10/29 01:51:50;;;;;;;24.65;12.98;;;;;;;11.19;100.00;99800.75;4968799;28;20164;-48
2022/10/29 01:54:42;;;;;;;23.30;13.30;;;;;;;11.19;100.00;99793.75;4973739;28;20145;-46
2022/10/29 01:57:27;;;;;;;27.25;13.93;;;;;;;11.18;100.00;99789.41;4976273;28;20194;-49
2022/10/29 02:00:18;;;;;;;33.85;14.05;;;;;;;11.16;100.00;99778.16;4979588;28;20046;-54
2022/10/29 02:03:20;;;;;;;66.47;17.58;;;;;;;11.09;100.00;99780.28;4974425;28;20073;-48
2022/10/29 02:06:43;;;;;;;29.38;15.15;;;;;;;11.15;100.00;99778.25;4973481;28;20120;-47
2022/10/29 02:09:34;;;;;;;26.90;13.85;;;;;;;11.27;100.00;99781.97;4972447;28;20113;-47
2022/10/29 02:12:32;;;;;;;48.10;15.95;;;;;;;11.20;100.00;99787.56;4970012;28;20046;-53
2022/10/29 02:15:33;;;;;;;39.55;15.75;;;;;;;11.21;100.00;99786.63;4968721;28;20062;-48
2022/10/29 02:18:18;;;;;;;34.73;13.63;;;;;;;11.15;100.00;99784.34;4974516;28;20545;-52
2022/10/29 02:21:03;;;;;;;54.00;13.80;;;;;;;11.13;100.00;99780.13;4974392;28;20517;-49
2022/10/29 02:23:47;;;;;;;32.80;14.18;;;;;;;11.13;100.00;99780.94;4973671;28;20593;-48
2022/10/29 02:26:32;;;;;;;28.20;13.68;;;;;;;11.18;100.00;99776.31;4975579;28;21132;-51
2022/10/29 02:29:16;;;;;;;31.67;13.50;;;;;;;11.16;100.00;99782.56;4974764;28;20096;-51
2022/10/29 02:32:01;;;;;;;23.63;13.07;;;;;;;11.13;100.00;99780.94;5000614;28;20124;-49
2022/10/29 02:34:46;;;;;;;37.13;14.05;;;;;;;11.07;100.00;99771.66;4996574;28;20497;-51
2022/10/29 02:37:31;;;;;;;23.55;12.32;;;;;;;11.19;100.00;99778.03;4998061;28;20042;-56
2022/10/29 02:40:16;;;;;;;26.65;13.00;;;;;;;11.23;100.00;99783.09;5001689;28;20042;-52
2022/10/29 02:43:01;;;;;;;23.65;13.18;;;;;;;11.21;100.00;99783.19;4996219;28;20053;-48
2022/10/29 02:45:45;;;;;;;36.10;11.75;;;;;;;11.16;100.00;99775.53;4995200;28;20133;-47
2022/10/29 02:48:30;;;;;;;24.63;12.63;;;;;;;11.13;100.00;99770.47;5001133;28;20129;-48
2022/10/29 02:51:17;;;;;;;32.00;12.55;;;;;;;11.13;100.00;99775.69;4997065;28;20057;-47
2022/10/29 02:54:01;;;;;;;23.77;11.85;;;;;;;11.09;100.00;99779.44;5000885;28;20063;-49
2022/10/29 02:56:46;;;;;;;23.23;12.10;;;;;;;11.09;100.00;99779.44;4994764;28;20516;-50
2022/10/29 02:59:30;;;;;;;54.35;13.27;;;;;;;11.11;100.00;99771.50;4980634;28;20053;-50
2022/10/29 03:02:15;;;;;;;25.52;12.50;;;;;;;11.05;100.00;99781.38;4995715;28;20428;-49
2022/10/29 03:05:00;;;;;;;26.25;13.13;;;;;;;11.10;100.00;99775.88;4987896;28;20122;-53
2022/10/29 03:07:44;;;;;;;29.67;12.05;;;;;;;11.07;100.00;99774.28;4997669;28;20097;-52
2022/10/29 03:10:29;;;;;;;24.00;11.48;;;;;;;11.13;100.00;99774.88;4996092;28;20085;-54
2022/10/29 03:13:14;;;;;;;19.92;11.10;;;;;;;11.20;100.00;99765.72;4999456;28;20157;-48
2022/10/29 03:15:58;;;;;;;60.78;13.80;;;;;;;11.22;100.00;99769.13;4985535;28;20125;-45
2022/10/29 03:18:43;;;;;;;116.03;15.10;;;;;;;11.21;100.00;99768.25;4997398;28;20050;-48
2022/10/29 03:21:28;;;;;;;27.75;12.35;;;;;;;10.99;100.00;99758.13;4978886;28;20050;-51
2022/10/29 03:24:12;;;;;;;112.00;14.98;;;;;;;11.00;100.00;99757.19;5004271;28;20050;-54
2022/10/29 03:26:57;;;;;;;59.22;14.05;;;;;;;10.94;100.00;99750.50;4993548;28;20061;-47
2022/10/29 03:29:41;;;;;;;46.53;12.73;;;;;;;11.01;100.00;99750.16;4994207;28;20089;-52
2022/10/29 03:32:26;;;;;;;72.80;14.05;;;;;;;10.92;100.00;99741.00;4981956;28;20120;-48
2022/10/29 03:35:13;;;;;;;32.97;11.30;;;;;;;10.96;100.00;99746.03;4996677;28;20485;-56
2022/10/29 03:37:57;;;;;;;46.15;12.10;;;;;;;10.93;100.00;99748.81;4993280;28;20512;-50
2022/10/29 03:40:42;;;;;;;21.85;11.45;;;;;;;11.01;100.00;99758.88;4995373;28;20145;-53
2022/10/29 03:43:27;;;;;;;23.52;11.45;;;;;;;11.00;100.00;99762.41;4995945;28;20136;-46
2022/10/29 03:46:12;;;;;;;23.35;11.23;;;;;;;11.02;100.00;99755.31;4978014;28;20405;-49
2022/10/29 03:48:57;;;;;;;22.85;11.13;;;;;;;10.95;100.00;99749.56;4994433;28;20445;-48
2022/10/29 03:51:41;;;;;;;30.60;12.23;;;;;;;10.96;100.00;99756.53;4991191;28;20042;-47
2022/10/29 03:54:26;;;;;;;23.98;11.02;;;;;;;11.05;100.00;99767.44;4995056;28;20046;-51
2022/10/29 03:57:11;;;;;;;21.35;11.80;;;;;;;11.05;100.00;99763.03;4989104;28;20053;-54
2022/10/29 03:59:55;;;;;;;19.48;11.02;;;;;;;11.05;100.00;99759.56;5002350;28;20074;-48
2022/10/29 04:02:40;;;;;;;26.60;12.38;;;;;;;11.01;100.00;99748.41;5002209;28;20126;-50
2022/10/29 04:05:25;;;;;;;23.67;11.65;;;;;;;10.98;100.00;99742.47;4998974;28;20070;-54
2022/10/29 04:08:09;;;;;;;25.95;12.55;;;;;;;11.00;100.00;99748.47;4997812;28;20156;-51
2022/10/29 04:10:54;;;;;;;43.08;12.57;;;;;;;10.98;100.00;99748.56;4974539;28;20135;-48
2022/10/29 04:13:39;;;;;;;33.55;13.05;;;;;;;10.97;100.00;99762.59;4999645;28;20445;-50
2022/10/29 04:16:24;;;;;;;24.70;11.75;;;;;;;11.02;100.00;99767.56;4997032;28;20046;-51
2022/10/29 04:19:08;;;;;;;29.08;11.68;;;;;;;10.96;100.00;99769.63;4993055;28;20030;-49
2022/10/29 04:21:53;;;;;;;29.98;12.10;;;;;;;10.94;100.00;99758.38;4997124;28;20133;-50
2022/10/29 04:24:39;;;;;;;22.23;10.50;;;;;;;10.92;100.00;99747.13;4990932;28;20486;-53
2022/10/29 04:27:23;;;;;;;96.90;14.57;;;;;;;10.85;100.00;99740.53;4977498;28;20064;-49
2022/10/29 04:30:08;;;;;;;23.83;11.55;;;;;;;10.86;100.00;99739.59;4997045;28;20409;-50
2022/10/29 04:32:57;;;;;;;27.80;11.93;;;;;;;10.94;100.00;99745.25;4994050;28;20038;-54
2022/10/29 04:35:42;;;;;;;25.00;11.88;;;;;;;10.92;100.00;99749.72;4993842;28;20052;-54
2022/10/29 04:38:27;;;;;;;26.35;12.35;;;;;;;10.84;100.00;99750.16;4998617;28;20129;-51
2022/10/29 04:41:11;;;;;;;107.07;14.52;;;;;;;10.79;100.00;99746.06;4998156;28;20038;-52
2022/10/29 04:43:56;;;;;;;114.82;15.32;;;;;;;10.83;100.00;99763.34;5003476;28;20053;-49
2022/10/29 04:46:40;;;;;;;32.92;13.40;;;;;;;10.83;100.00;99765.97;4987544;28;20084;-51
2022/10/29 04:49:25;;;;;;;48.90;12.38;;;;;;;10.83;100.00;99760.72;4999665;28;20049;-46
2022/10/29 04:52:10;;;;;;;38.45;12.52;;;;;;;10.87;100.00;99759.63;4983450;28;20047;-51
2022/10/29 04:54:54;;;;;;;25.73;12.50;;;;;;;10.96;100.00;99777.50;4998413;28;20051;-50
2022/10/29 04:57:39;;;;;;;25.63;12.65;;;;;;;10.98;100.00;99792.28;4993302;28;20492;-48
2022/10/29 05:00:24;;;;;;;25.13;12.32;;;;;;;10.90;100.00;99785.66;4976923;28;20050;-51
2022/10/29 05:03:09;;;;;;;25.70;12.82;;;;;;;10.90;100.00;99790.09;4992147;28;20413;-49
2022/10/29 05:05:54;;;;;;;21.38;12.40;;;;;;;11.00;100.00;99793.88;4989028;28;20467;-51
2022/10/29 05:08:39;;;;;;;21.30;11.85;;;;;;;10.95;100.00;99783.66;4977571;28;20048;-53
2022/10/29 05:11:24;;;;;;;20.60;11.57;;;;;;;10.92;100.00;99781.19;4996073;28;20042;-50
2022/10/29 05:14:08;;;;;;;24.58;11.68;;;;;;;10.98;100.00;99782.66;4978476;28;20049;-51
2022/10/29 05:16:53;;;;;;;26.40;12.50;;;;;;;10.98;100.00;99793.13;4996504;28;20053;-50
2022/10/29 05:19:37;;;;;;;23.75;12.10;;;;;;;10.91;100.00;99794.38;4983240;28;20034;-53
2022/10/29 05:22:22;;;;;;;19.77;10.60;;;;;;;11.01;100.00;99790.34;4991058;28;20469;-51
2022/10/29 05:25:07;;;;;;;17.58;9.98;;;;;;;10.98;100.00;99785.28;4992504;28;20179;-50
2022/10/29 05:28:01;;;;;;;20.25;11.60;;;;;;;10.99;100.00;99786.09;4994161;28;21086;-47
2022/10/29 05:30:48;;;;;;;20.30;10.50;;;;;;;10.95;100.00;99782.81;4994104;28;20050;-50
2022/10/29 05:33:32;;;;;;;32.80;11.52;;;;;;;10.89;100.00;99773.50;4991581;28;20104;-52
2022/10/29 05:36:17;;;;;;;20.27;10.70;;;;;;;10.99;100.00;99780.84;4986611;28;20047;-52
2022/10/29 05:39:01;;;;;;;20.10;10.60;;;;;;;11.05;100.00;99793.66;4994186;28;20717;-49
2022/10/29 05:41:46;;;;;;;21.05;11.48;;;;;;;11.01;100.00;99800.84;4994999;28;20086;-49
2022/10/29 05:44:31;;;;;;;23.25;12.38;;;;;;;11.01;100.00;99802.59;4995427;28;20065;-50
2022/10/29 05:47:16;;;;;;;23.23;11.85;;;;;;;11.01;100.00;99811.31;4989672;28;20109;-50
2022/10/29 05:50:00;;;;;;;23.77;13.05;;;;;;;10.99;100.00;99810.56;4976963;28;20042;-50
2022/10/29 05:52:53;;;;;;;26.67;14.15;;;;;;;11.02;100.00;99817.41;4986472;28;20050;-51
2022/10/29 05:55:40;;;;;;;22.73;11.85;;;;;;;11.01;100.00;99808.72;4991002;28;20093;-47
2022/10/29 05:58:24;;;;;;;19.77;11.27;;;;;;;11.01;100.00;99803.47;4999340;28;20109;-49
2022/10/29 06:01:10;;;;;;;18.80;11.35;;;;;;;11.03;100.00;99800.75;4972586;28;20443;-51
2022/10/29 06:03:54;;;;;;;185.73;18.48;;;;;;;10.91;100.00;99795.25;4985535;28;20128;-51
2022/10/29 06:06:39;;;;;;;415.52;27.67;;;;;;;10.79;100.00;99786.25;4997634;28;20082;-46
2022/10/29 06:09:24;;;;;;;169.13;16.60;;;;;;;10.72;100.00;99772.63;4994519;28;20073;-47
2022/10/29 06:12:32;;;;;;;95.93;14.38;;;;;;;10.72;100.00;99772.63;4993569;28;20050;-48
2022/10/29 06:15:20;;;;;;;167.20;17.20;;;;;;;10.67;100.00;99768.56;4955465;28;20062;-50
2022/10/29 06:18:05;;;;;;;263.45;21.20;;;;;;;10.58;100.00;99772.50;4950038;28;20727;-51
2022/10/29 06:20:49;;;;;;;205.45;19.80;;;;;;;10.53;100.00;99779.75;4947580;28;20395;-47
2022/10/29 06:23:34;;;;;;;336.80;25.45;;;;;;;10.57;100.00;99779.53;4951295;28;20550;-57
2022/10/29 06:26:18;;;;;;;208.75;19.48;;;;;;;10.58;100.00;99777.75;4946736;28;20048;-44
2022/10/29 06:29:03;;;;;;;309.98;25.48;;;;;;;10.80;100.00;99779.25;4956003;28;20047;-47
2022/10/29 06:31:48;;;;;;;229.93;21.17;;;;;;;10.68;100.00;99776.34;4955337;28;20065;-50
2022/10/29 06:34:32;;;;;;;333.33;26.95;;;;;;;10.56;100.00;99769.97;4952794;28;20055;-49
2022/10/29 06:37:17;;;;;;;311.83;24.83;;;;;;;10.52;100.00;99772.84;4951804;28;20047;-53
2022/10/29 06:40:01;;;;;;;346.98;23.90;;;;;;;10.43;100.00;99763.66;4939291;28;20187;-51
2022/10/29 06:42:46;;;;;;;234.15;21.58;;;;;;;10.45;100.00;99773.13;4953861;28;20047;-50
2022/10/29 06:45:32;;;;;;;214.35;19.55;;;;;;;10.48;100.00;99772.13;4962797;28;20054;-55
2022/10/29 06:48:17;;;;;;;160.48;18.98;;;;;;;10.51;100.00;99777.22;4980643;28;20136;-48
2022/10/29 06:51:01;;;;;;;182.52;20.38;;;;;;;10.49;100.00;99786.09;4995279;28;20049;-53
2022/10/29 06:53:47;;;;;;;31.88;12.52;;;;;;;11.32;100.00;99787.81;5000058;28;20054;-49
2022/10/29 06:56:33;;;;;;;20.65;8.65;;;;;;;12.48;100.00;99787.38;4981750;28;20064;-53
2022/10/29 06:59:17;;;;;;;23.73;12.75;;;;;;;11.82;100.00;99793.75;4979775;28;20409;-52
2022/10/29 07:02:02;;;;;;;23.75;12.10;;;;;;;11.06;100.00;99784.84;4997915;28;20059;-50
2022/10/29 07:04:47;;;;;;;21.92;11.25;;;;;;;10.94;100.00;99781.09;4995009;28;20038;-52
2022/10/29 07:07:32;;;;;;;29.73;11.95;;;;;;;10.84;100.00;99781.63;4998204;28;20168;-49
2022/10/29 07:10:16;;;;;;;35.40;13.23;;;;;;;10.83;100.00;99769.44;5000574;28;20080;-48
2022/10/29 07:13:01;;;;;;;60.50;13.07;;;;;;;10.78;100.00;99774.09;4970376;28;20524;-49
2022/10/29 07:15:46;;;;;;;25.00;11.48;;;;;;;10.69;100.00;99771.97;4996856;28;20046;-54
2022/10/29 07:18:31;;;;;;;29.05;11.82;;;;;;;10.67;100.00;99774.66;4995533;28;20042;-56
2022/10/29 07:21:15;;;;;;;24.45;11.43;;;;;;;10.64;100.00;99784.44;4977677;28;20059;-48
2022/10/29 07:24:00;;;;;;;40.40;11.52;;;;;;;10.63;100.00;99772.25;4996277;28;20840;-48
2022/10/29 07:26:45;;;;;;;25.27;11.52;;;;;;;10.61;100.00;99772.34;4988328;28;20125;-52
2022/10/29 07:29:29;;;;;;;25.83;11.60;;;;;;;10.60;100.00;99768.03;4996288;28;20144;-49
2022/10/29 07:32:14;;;;;;;27.33;11.85;;;;;;;10.60;100.00;99770.66;5002399;28;20038;-53
2022/10/29 07:34:59;;;;;;;26.08;12.32;;;;;;;10.67;100.00;99774.66;4991805;28;20168;-46
2022/10/29 07:37:43;;;;;;;22.63;11.50;;;;;;;10.82;100.00;99780.84;4993867;28;20046;-51
2022/10/29 07:40:28;;;;;;;21.85;10.65;;;;;;;10.80;100.00;99777.47;4983721;28;20494;-50
2022/10/29 07:43:14;;;;;;;21.90;10.52;;;;;;;10.89;100.00;99783.13;5000344;28;20402;-49
2022/10/29 07:45:59;;;;;;;18.58;10.05;;;;;;;10.98;100.00;99797.53;4999207;28;20050;-51
2022/10/29 07:48:43;;;;;;;81.60;12.98;;;;;;;10.88;100.00;99807.66;4994553;28;20117;-51
2022/10/29 07:51:28;;;;;;;74.10;12.20;;;;;;;10.93;100.00;99811.75;4994101;28;20078;-54
2022/10/29 07:54:14;;;;;;;22.05;10.57;;;;;;;10.97;100.00;99822.91;4994974;28;20091;-51
2022/10/29 07:56:58;;;;;;;20.25;8.05;;;;;;;11.27;100.00;99826.56;4995898;28;20110;-51
2022/10/29 07:59:43;;;;;;;21.65;12.27;;;;;;;11.46;100.00;99819.38;4993784;28;20052;-48
2022/10/29 08:02:27;;;;;;;19.58;11.00;;;;;;;11.30;100.00;99821.16;4993666;28;20076;-49
2022/10/29 08:05:12;;;;;;;25.17;12.18;;;;;;;11.17;100.00;99813.97;4980293;28;20038;-50
2022/10/29 08:07:57;;;;;;;36.03;11.88;;;;;;;11.16;100.00;99817.50;4991329;28;20381;-52
2022/10/29 08:10:42;;;;;;;57.72;11.50;;;;;;;11.11;100.00;99816.94;5000400;28;20140;-49
2022/10/29 08:13:28;;;;;;;20.88;10.88;;;;;;;11.20;100.00;99815.56;4997251;28;20492;-53
2022/10/29 08:16:12;;;;;;;38.50;10.98;;;;;;;11.19;100.00;99825.22;4978363;28;20462;-55
2022/10/29 08:18:57;;;;;;;22.75;10.48;;;;;;;11.24;100.00;99824.97;4998384;28;20589;-51
2022/10/29 08:21:42;;;;;;;45.65;10.68;;;;;;;11.25;100.00;99825.78;4995089;28;20437;-52
2022/10/29 08:24:26;;;;;;;29.38;10.77;;;;;;;11.33;100.00;99820.97;4995501;28;20741;-52
2022/10/29 08:27:11;;;;;;;25.88;11.18;;;;;;;11.41;100.00;99821.41;4992973;28;20046;-52
2022/10/29 08:29:55;;;;;;;36.40;10.60;;;;;;;11.20;100.00;99815.56;4990533;28;20065;-53
2022/10/29 08:32:45;;;;;;;34.92;10.80;;;;;;;11.28;100.00;99809.88;4993140;28;20145;-49
2022/10/29 08:35:31;;;;;;;26.17;10.13;;;;;;;11.31;100.00;99804.50;4978444;28;20061;-47
2022/10/29 08:38:15;;;;;;;35.67;11.57;;;;;;;11.31;100.00;99809.75;4996584;28;20523;-52
2022/10/29 08:41:39;;;;;;;37.58;11.00;;;;;;;11.21;100.00;99794.50;4995391;28;20049;-53
2022/10/29 08:44:37;;;;;;;95.38;12.98;;;;;;;11.53;100.00;99795.41;4992601;28;20057;-51
2022/10/29 08:47:22;;;;;;;24.38;10.30;;;;;;;11.29;100.00;99796.69;4975900;28;20093;-48
2022/10/29 08:50:24;;;;;;;51.88;10.73;;;;;;;11.19;100.00;99799.00;4994565;28;20038;-51
2022/10/29 08:53:19;;;;;;;122.25;13.95;;;;;;;11.17;100.00;99800.00;4994961;28;20130;-51
2022/10/29 08:56:17;;;;;;;33.28;10.73;;;;;;;11.23;100.00;99809.31;4979745;28;20050;-51
2022/10/29 08:59:20;;;;;;;29.30;10.77;;;;;;;11.21;100.00;99799.75;4995239;28;20081;-54
2022/10/29 09:02:17;;;;;;;22.92;11.18;;;;;;;11.15;100.00;99805.31;4992876;28;20046;-54
2022/10/29 09:05:01;;;;;;;33.35;10.95;;;;;;;11.14;100.00;99798.41;4993804;28;20042;-53
2022/10/29 09:07:53;;;;;;;80.45;12.35;;;;;;;11.05;100.00;99791.03;4985229;28;20054;-48
2022/10/29 09:10:45;;;;;;;34.72;11.15;;;;;;;10.98;100.00;99787.03;4996420;28;20120;-55
2022/10/29 09:14:07;;;;;;;35.78;10.48;;;;;;;11.03;100.00;99798.13;4968080;28;20426;-53
2022/10/29 09:17:37;;;;;;;29.25;11.00;;;;;;;10.96;100.00;99795.84;4997229;28;20132;-53
2022/10/29 09:20:40;;;;;;;29.23;10.88;;;;;;;10.95;100.00;99803.78;4909164;29;20051;-52
2022/10/29 09:23:39;;;;;;;18.25;10.65;;;;;;;10.96;100.00;99802.84;4921628;29;20091;-49
2022/10/29 09:26:23;;;;;;;24.52;10.68;;;;;;;11.06;100.00;99796.19;4920759;29;20515;-53
2022/10/29 09:29:30;;;;;;;50.30;12.27;;;;;;;11.03;100.00;99793.72;4922591;29;20087;-50
2022/10/29 09:32:25;;;;;;;41.05;11.27;;;;;;;11.09;100.00;99792.56;4904957;29;20052;-52
2022/10/29 09:35:13;;;;;;;26.80;9.40;;;;;;;11.38;100.00;99795.34;4920904;29;20590;-48
2022/10/29 09:38:01;;;;;;;23.90;12.65;;;;;;;12.71;100.00;99789.53;4915049;29;20131;-51
2022/10/29 09:40:46;;;;;;;28.10;12.55;;;;;;;11.59;100.00;99810.81;4922836;29;20566;-55
2022/10/29 09:43:51;;;;;;;20.13;11.63;;;;;;;11.35;100.00;99795.50;4916247;29;20135;-53
2022/10/29 09:46:46;;;;;;;26.90;12.00;;;;;;;11.29;100.00;99788.00;4919904;29;20579;-53
2022/10/29 09:49:33;;;;;;;23.58;12.88;;;;;;;11.31;100.00;99794.00;4919446;29;20546;-53
2022/10/29 09:52:18;;;;;;;22.58;12.02;;;;;;;11.07;100.00;99790.00;4918194;29;20857;-55
2022/10/29 09:55:06;;;;;;;22.45;14.43;;;;;;;10.95;100.00;99791.50;4940107;28;20061;-53
2022/10/29 09:57:52;;;;;;;23.70;13.38;;;;;;;10.98;100.00;99792.28;4991537;28;20046;-51
2022/10/29 10:00:37;;;;;;;23.98;13.20;;;;;;;11.03;100.00;99796.34;4979878;28;20042;-53
2022/10/29 10:03:36;;;;;;;21.27;11.10;;;;;;;11.12;100.00;99795.00;4995720;28;20047;-48
2022/10/29 10:06:21;;;;;;;18.63;11.38;;;;;;;11.18;100.00;99799.91;4993951;28;20049;-55
2022/10/29 10:09:05;;;;;;;24.15;12.57;;;;;;;11.23;100.00;99797.03;4990786;28;20046;-55
2022/10/29 10:11:57;;;;;;;19.20;11.32;;;;;;;11.34;100.00;99793.84;4994286;28;20045;-52
2022/10/29 10:14:42;;;;;;;19.17;10.07;;;;;;;11.40;100.00;99783.00;4973883;28;20545;-56
2022/10/29 10:17:26;;;;;;;20.25;10.82;;;;;;;11.38;100.00;99792.72;4996592;28;20088;-52
2022/10/29 10:20:25;;;;;;;16.85;9.98;;;;;;;11.42;100.00;99791.63;5000599;28;20481;-56
2022/10/29 10:23:29;;;;;;;19.23;10.93;;;;;;;11.39;100.00;99788.34;4991005;28;20038;-49
2022/10/29 10:26:31;;;;;;;19.42;10.20;;;;;;;11.39;100.00;99773.41;4982305;28;20092;-50
2022/10/29 10:29:18;;;;;;;20.10;10.97;;;;;;;11.45;100.00;99783.59;4997233;28;20038;-52
2022/10/29 10:32:02;;;;;;;23.15;11.32;;;;;;;11.29;100.00;99775.69;4995453;28;20135;-52
2022/10/29 10:34:48;;;;;;;25.23;14.93;;;;;;;11.32;100.00;99777.31;4995687;28;20095;-51
2022/10/29 10:37:33;;;;;;;23.63;11.85;;;;;;;11.42;100.00;99783.75;5002304;28;20181;-47
2022/10/29 10:40:23;;;;;;;22.73;11.40;;;;;;;11.46;100.00;99784.41;4995500;28;20757;-53
2022/10/29 10:43:21;;;;;;;18.05;10.30;;;;;;;11.42;100.00;99770.66;4993213;28;20038;-52
2022/10/29 10:46:21;;;;;;;21.15;10.40;;;;;;;11.41;100.00;99774.19;4997370;28;20057;-51
2022/10/29 10:49:23;;;;;;;19.33;10.63;;;;;;;11.56;100.00;99769.00;4998456;28;20046;-48
2022/10/29 10:52:17;;;;;;;18.73;10.23;;;;;;;11.67;100.00;99763.97;4994999;28;20062;-50
2022/10/29 10:55:09;;;;;;;28.35;10.35;;;;;;;11.72;100.00;99760.25;5005579;28;20042;-48
2022/10/29 10:58:02;;;;;;;26.63;14.60;;;;;;;11.60;100.00;99752.16;4989839;28;20058;-46
2022/10/29 11:01:07;;;;;;;24.90;14.73;;;;;;;11.64;100.00;99750.19;4988257;28;20417;-53
2022/10/29 11:04:05;;;;;;;33.58;13.23;;;;;;;11.64;100.00;99750.19;5000311;28;20049;-50
2022/10/29 11:06:52;;;;;;;36.15;11.73;;;;;;;11.61;100.00;99751.22;4998323;28;20434;-49
2022/10/29 11:09:42;;;;;;;21.70;11.02;;;;;;;11.56;100.00;99750.63;4990942;28;20050;-48
2022/10/29 11:12:36;;;;;;;21.33;10.40;;;;;;;11.77;100.00;99740.66;4999659;28;20045;-52
2022/10/29 11:15:56;;;;;;;21.25;10.27;;;;;;;11.74;100.00;99742.63;5002612;28;20079;-50
2022/10/29 11:18:47;;;;;;;32.88;12.10;;;;;;;11.58;100.00;99746.16;4991498;28;20490;-51
2022/10/29 11:21:37;;;;;;;23.45;12.15;;;;;;;11.57;100.00;99729.53;5000771;28;20049;-51
2022/10/29 11:24:47;;;;;;;21.45;12.40;;;;;;;11.67;100.00;99745.59;4999141;28;20057;-52
2022/10/29 11:28:24;;;;;;;23.23;11.30;;;;;;;11.68;100.00;99747.31;5001264;28;20141;-51
2022/10/29 11:31:36;;;;;;;24.05;11.55;;;;;;;11.65;100.00;99750.09;4869286;29;20136;-46
2022/10/29 11:34:29;;;;;;;20.38;12.13;;;;;;;11.66;100.00;99732.56;4855517;29;20080;-52
2022/10/29 11:37:21;;;;;;;26.73;11.75;;;;;;;11.64;100.00;99723.94;4861823;29;20157;-49
2022/10/29 11:40:22;;;;;;;20.90;10.70;;;;;;;11.50;100.00;99724.75;4864456;29;20559;-47
2022/10/29 11:43:12;;;;;;;18.52;11.70;;;;;;;11.54;100.00;99727.09;4870029;29;20049;-51
2022/10/29 11:46:05;;;;;;;25.40;12.77;;;;;;;11.40;100.00;99725.28;4870256;29;20546;-52
2022/10/29 11:49:01;;;;;;;23.58;13.55;;;;;;;11.49;100.00;99739.63;4857013;29;20060;-53
2022/10/29 11:52:08;;;;;;;22.95;13.23;;;;;;;11.46;100.00;99731.94;4870002;29;20057;-49
2022/10/29 11:55:34;;;;;;;30.65;16.08;;;;;;;11.28;100.00;99720.69;4869542;29;20651;-52
2022/10/29 11:58:33;;;;;;;31.90;16.75;;;;;;;11.37;100.00;99730.69;4856056;29;20069;-54
2022/10/29 12:01:42;;;;;;;23.98;14.75;;;;;;;11.52;100.00;99722.88;4866521;29;20075;-51
2022/10/29 12:04:34;;;;;;;26.33;15.77;;;;;;;11.53;100.00;99725.41;4863118;29;20048;-54
2022/10/29 12:07:25;;;;;;;32.58;17.20;;;;;;;11.67;100.00;99739.53;4932276;28;20260;-50
2022/10/29 12:10:38;;;;;;;29.67;16.73;;;;;;;11.74;100.00;99732.13;4983377;28;20061;-52
2022/10/29 12:13:47;;;;;;;26.23;15.02;;;;;;;11.60;100.00;99727.69;4986983;28;20424;-53
2022/10/29 12:17:07;;;;;;;26.95;14.82;;;;;;;11.62;100.00;99717.97;4985762;28;20054;-51
2022/10/29 12:20:02;;;;;;;26.52;14.63;;;;;;;11.59;100.00;99711.09;4988685;28;20114;-48
2022/10/29 12:22:53;;;;;;;26.88;13.88;;;;;;;11.66;100.00;99699.31;4990958;28;20046;-47
2022/10/29 12:25:54;;;;;;;27.67;14.20;;;;;;;11.65;100.00;99697.59;4990413;28;20153;-51
2022/10/29 12:28:54;;;;;;;25.88;13.95;;;;;;;11.54;100.00;99708.72;4988521;28;20053;-51
2022/10/29 12:31:55;;;;;;;24.67;14.13;;;;;;;11.58;100.00;99714.66;4994858;28;20107;-54
2022/10/29 12:35:01;;;;;;;23.70;13.00;;;;;;;11.65;100.00;99707.28;4993636;28;20057;-50
2022/10/29 12:38:18;;;;;;;25.90;15.00;;;;;;;11.70;100.00;99708.69;4992408;28;20607;-52
2022/10/29 12:41:17;;;;;;;25.55;13.95;;;;;;;11.65;100.00;99704.66;4909688;29;20087;-51
2022/10/29 12:44:45;;;;;;;25.10;15.38;;;;;;;11.57;100.00;99713.81;4910281;29;20072;-48
2022/10/29 12:47:38;;;;;;;31.75;16.88;;;;;;;12.90;100.00;99697.19;4911202;29;20076;-52
2022/10/29 12:50:42;;;;;;;24.48;14.00;;;;;;;12.28;100.00;99702.72;4903254;29;20102;-54
2022/10/29 12:53:37;;;;;;;23.52;13.48;;;;;;;11.90;100.00;99688.28;4917834;29;20075;-55